04:08
Airports
Links
Donate
Help keep this website running!
PayPal
Bitcoin
METAR
DNKN 210300Z 09005KT CAVOK 21/05 Q1014 NOSIG
Current Weather Conditions at DNKN
VFR 03:00:00 21-11-17
Altimeter:29.94 hg
Temp:21.0°c 70°f
Dew point:5.0°c 41°f
Wind:5 knots, 5.8 mph, 3 m/s, from 90°
Visibility:6.21 statute miles
(CAVOK)
No significant weather changes expected within 2 hours.
Past METAR reports
VFR 02:00:00 21-11-17
Altimeter:29.94 hg
Temp:22.0°c 72°f
Dew point:8.0°c 46°f
Wind:4 knots, 4.6 mph, 2 m/s, from 90°
Visibility:6.21 statute miles
(CAVOK)
No significant weather changes expected within 2 hours.
DNKN 210200Z 09004KT CAVOK 22/08 Q1014 NOSIG
VFR 00:00:00 21-11-17
Altimeter:29.97 hg
Temp:24.0°c 75°f
Dew point:7.0°c 45°f
Wind:4 knots, 4.6 mph, 2 m/s, from 350°
Visibility:6.21 statute miles
(CAVOK)
No significant weather changes expected within 2 hours.
DNKN 210000Z 35004KT CAVOK 24/07 Q1015 NOSIG
VFR 23:00:00 20-11-17
Altimeter:29.97 hg
Temp:24.0°c 75°f
Dew point:11.0°c 52°f
Wind:3 knots, 3.5 mph, 2 m/s, from 320°
Visibility:6.21 statute miles
(CAVOK)
No significant weather changes expected within 2 hours.
DNKN 202300Z 32003KT CAVOK 24/11 Q1015 NOSIG
TAF
TAF DNKN 202130Z 2100/2206 VRB02KT CAVOK BECMG 2106/1208 08010KT TEMPO 2106/2112 5000 HZ NSC
Forecast at DNKN
00:00 21-11-17 to 06:00 21-11-17
NSW
Wind:2 Knots from 360°
Visibility:6.21 statute miles
NSC
TEMPO 06:00 21-11-17 to 12:00 21-11-17
HZ
Visibility:3.11 statute miles
NSC
BECMG 06:00 21-11-17 to 06:00 22-11-17
NSW
Wind:10 Knots from 80°
Visibility:6.21 statute miles
NSC